sensor_id;sensor_type;location;lat;lon;timestamp;temperature;humidity
5459;DHT22;2752;49.992;8.422;2023-08-08T00:02:05;15.60;1.00
5459;DHT22;2752;49.992;8.422;2023-08-08T00:04:32;15.60;1.00
5459;DHT22;2752;49.992;8.422;2023-08-08T00:06:58;15.60;1.00
5459;DHT22;2752;49.992;8.422;2023-08-08T00:09:25;15.60;1.00
5459;DHT22;2752;49.992;8.422;2023-08-08T00:11:53;15.70;1.00
5459;DHT22;2752;49.992;8.422;2023-08-08T00:14:20;15.70;1.00
5459;DHT22;2752;49.992;8.422;2023-08-08T00:16:47;15.90;1.00
5459;DHT22;2752;49.992;8.422;2023-08-08T00:19:13;15.80;1.00
5459;DHT22;2752;49.992;8.422;2023-08-08T00:21:40;15.80;1.00
5459;DHT22;2752;49.992;8.422;2023-08-08T00:24:07;15.90;1.00
5459;DHT22;2752;49.992;8.422;2023-08-08T00:26:33;15.80;1.00
5459;DHT22;2752;49.992;8.422;2023-08-08T00:29:01;15.80;1.00
5459;DHT22;2752;49.992;8.422;2023-08-08T00:31:28;15.70;1.00
5459;DHT22;2752;49.992;8.422;2023-08-08T00:33:55;15.80;1.00
5459;DHT22;2752;49.992;8.422;2023-08-08T00:36:22;15.90;1.00
5459;DHT22;2752;49.992;8.422;2023-08-08T00:38:48;16.00;1.00
5459;DHT22;2752;49.992;8.422;2023-08-08T00:41:15;15.90;1.00
5459;DHT22;2752;49.992;8.422;2023-08-08T00:43:42;16.10;1.00
5459;DHT22;2752;49.992;8.422;2023-08-08T00:46:10;16.00;1.00
5459;DHT22;2752;49.992;8.422;2023-08-08T00:48:37;15.90;1.00
5459;DHT22;2752;49.992;8.422;2023-08-08T00:51:03;16.00;1.00
5459;DHT22;2752;49.992;8.422;2023-08-08T00:53:30;16.00;1.00
5459;DHT22;2752;49.992;8.422;2023-08-08T00:55:58;16.00;1.00
5459;DHT22;2752;49.992;8.422;2023-08-08T00:58:25;16.10;1.00
5459;DHT22;2752;49.992;8.422;2023-08-08T01:00:52;16.10;1.00
5459;DHT22;2752;49.992;8.422;2023-08-08T01:03:24;16.10;1.00
5459;DHT22;2752;49.992;8.422;2023-08-08T01:05:55;16.10;1.00
5459;DHT22;2752;49.992;8.422;2023-08-08T01:08:41;16.00;1.00
5459;DHT22;2752;49.992;8.422;2023-08-08T01:11:08;15.90;1.00
5459;DHT22;2752;49.992;8.422;2023-08-08T01:13:37;15.80;1.00
5459;DHT22;2752;49.992;8.422;2023-08-08T01:16:05;15.70;1.00
5459;DHT22;2752;49.992;8.422;2023-08-08T01:18:33;15.80;1.00
5459;DHT22;2752;49.992;8.422;2023-08-08T01:21:01;15.70;1.00
5459;DHT22;2752;49.992;8.422;2023-08-08T01:23:42;15.80;1.00
5459;DHT22;2752;49.992;8.422;2023-08-08T01:26:10;15.80;1.00
5459;DHT22;2752;49.992;8.422;2023-08-08T01:28:38;15.70;1.00
5459;DHT22;2752;49.992;8.422;2023-08-08T01:31:05;15.60;1.00
5459;DHT22;2752;49.992;8.422;2023-08-08T01:33:32;15.60;1.00
5459;DHT22;2752;49.992;8.422;2023-08-08T01:36:04;15.70;1.00
5459;DHT22;2752;49.992;8.422;2023-08-08T01:38:36;15.70;1.00
5459;DHT22;2752;49.992;8.422;2023-08-08T01:41:05;15.70;1.00
5459;DHT22;2752;49.992;8.422;2023-08-08T01:43:34;15.60;1.00
5459;DHT22;2752;49.992;8.422;2023-08-08T01:46:01;15.60;1.00
5459;DHT22;2752;49.992;8.422;2023-08-08T01:48:29;15.60;1.00
5459;DHT22;2752;49.992;8.422;2023-08-08T01:50:56;15.50;1.00
5459;DHT22;2752;49.992;8.422;2023-08-08T01:53:22;15.50;1.00
5459;DHT22;2752;49.992;8.422;2023-08-08T01:55:50;15.50;1.00
5459;DHT22;2752;49.992;8.422;2023-08-08T01:58:17;15.40;1.00
5459;DHT22;2752;49.992;8.422;2023-08-08T02:00:45;15.40;1.00
5459;DHT22;2752;49.992;8.422;2023-08-08T02:03:12;15.30;1.00
5459;DHT22;2752;49.992;8.422;2023-08-08T02:05:39;15.30;1.00
5459;DHT22;2752;49.992;8.422;2023-08-08T02:08:06;15.20;1.00
5459;DHT22;2752;49.992;8.422;2023-08-08T02:10:32;15.10;1.00
5459;DHT22;2752;49.992;8.422;2023-08-08T02:12:59;15.20;1.00
5459;DHT22;2752;49.992;8.422;2023-08-08T02:15:26;15.10;1.00
5459;DHT22;2752;49.992;8.422;2023-08-08T02:17:54;15.00;1.00
5459;DHT22;2752;49.992;8.422;2023-08-08T02:20:20;15.00;1.00
5459;DHT22;2752;49.992;8.422;2023-08-08T02:22:47;14.90;1.00
5459;DHT22;2752;49.992;8.422;2023-08-08T02:25:14;14.80;1.00
5459;DHT22;2752;49.992;8.422;2023-08-08T02:27:40;14.80;1.00
5459;DHT22;2752;49.992;8.422;2023-08-08T02:30:08;14.70;1.00
5459;DHT22;2752;49.992;8.422;2023-08-08T02:32:34;14.70;1.00
5459;DHT22;2752;49.992;8.422;2023-08-08T02:35:03;14.70;1.00
5459;DHT22;2752;49.992;8.422;2023-08-08T02:37:29;14.60;1.00
5459;DHT22;2752;49.992;8.422;2023-08-08T02:39:56;14.50;1.00
5459;DHT22;2752;49.992;8.422;2023-08-08T02:42:23;14.50;1.00
5459;DHT22;2752;49.992;8.422;2023-08-08T02:44:49;14.40;1.00
5459;DHT22;2752;49.992;8.422;2023-08-08T02:47:16;14.30;1.00
5459;DHT22;2752;49.992;8.422;2023-08-08T02:49:43;14.30;1.00
5459;DHT22;2752;49.992;8.422;2023-08-08T02:52:11;14.20;1.00
5459;DHT22;2752;49.992;8.422;2023-08-08T02:54:37;14.20;1.00
5459;DHT22;2752;49.992;8.422;2023-08-08T02:57:04;14.20;1.00
5459;DHT22;2752;49.992;8.422;2023-08-08T02:59:31;14.10;1.00
5459;DHT22;2752;49.992;8.422;2023-08-08T03:01:58;14.10;1.00
5459;DHT22;2752;49.992;8.422;2023-08-08T03:04:24;14.20;1.00
5459;DHT22;2752;49.992;8.422;2023-08-08T03:06:51;14.10;1.00
5459;DHT22;2752;49.992;8.422;2023-08-08T03:09:19;14.00;1.00
5459;DHT22;2752;49.992;8.422;2023-08-08T03:11:45;13.90;1.00
5459;DHT22;2752;49.992;8.422;2023-08-08T03:14:12;13.80;1.00
5459;DHT22;2752;49.992;8.422;2023-08-08T03:16:39;13.80;1.90
5459;DHT22;2752;49.992;8.422;2023-08-08T03:19:06;13.70;2.90
5459;DHT22;2752;49.992;8.422;2023-08-08T03:21:32;13.60;5.10
5459;DHT22;2752;49.992;8.422;2023-08-08T03:23:59;13.60;6.00
5459;DHT22;2752;49.992;8.422;2023-08-08T03:26:27;13.50;7.20
5459;DHT22;2752;49.992;8.422;2023-08-08T03:28:53;13.50;9.10
5459;DHT22;2752;49.992;8.422;2023-08-08T03:31:20;13.40;10.50
5459;DHT22;2752;49.992;8.422;2023-08-08T03:33:47;13.40;11.20
5459;DHT22;2752;49.992;8.422;2023-08-08T03:36:14;13.40;13.40
5459;DHT22;2752;49.992;8.422;2023-08-08T03:38:40;13.30;14.30
5459;DHT22;2752;49.992;8.422;2023-08-08T03:41:09;13.30;15.70
5459;DHT22;2752;49.992;8.422;2023-08-08T03:43:38;13.30;16.00
5459;DHT22;2752;49.992;8.422;2023-08-08T03:46:04;13.20;16.40
5459;DHT22;2752;49.992;8.422;2023-08-08T03:48:31;13.10;17.20
5459;DHT22;2752;49.992;8.422;2023-08-08T03:50:58;13.10;17.70
5459;DHT22;2752;49.992;8.422;2023-08-08T03:53:24;12.90;17.90
5459;DHT22;2752;49.992;8.422;2023-08-08T03:55:51;12.90;19.40
5459;DHT22;2752;49.992;8.422;2023-08-08T03:58:18;12.80;20.90
5459;DHT22;2752;49.992;8.422;2023-08-08T04:00:46;12.80;24.30
5459;DHT22;2752;49.992;8.422;2023-08-08T04:03:13;12.70;26.90
5459;DHT22;2752;49.992;8.422;2023-08-08T04:05:40;12.70;31.00
5459;DHT22;2752;49.992;8.422;2023-08-08T04:08:07;12.70;33.20
5459;DHT22;2752;49.992;8.422;2023-08-08T04:10:33;12.60;34.00
5459;DHT22;2752;49.992;8.422;2023-08-08T04:13:00;12.60;35.80
5459;DHT22;2752;49.992;8.422;2023-08-08T04:15:26;12.60;38.60
5459;DHT22;2752;49.992;8.422;2023-08-08T04:17:54;12.60;39.90
5459;DHT22;2752;49.992;8.422;2023-08-08T04:20:21;12.60;40.50
5459;DHT22;2752;49.992;8.422;2023-08-08T04:22:48;12.60;41.00
5459;DHT22;2752;49.992;8.422;2023-08-08T04:25:15;12.50;41.60
5459;DHT22;2752;49.992;8.422;2023-08-08T04:27:42;12.50;44.50
5459;DHT22;2752;49.992;8.422;2023-08-08T04:30:09;12.50;46.20
5459;DHT22;2752;49.992;8.422;2023-08-08T04:32:36;12.50;48.10
5459;DHT22;2752;49.992;8.422;2023-08-08T04:35:04;12.50;48.60
5459;DHT22;2752;49.992;8.422;2023-08-08T04:37:31;12.50;48.00
5459;DHT22;2752;49.992;8.422;2023-08-08T04:39:57;12.60;48.40
5459;DHT22;2752;49.992;8.422;2023-08-08T04:42:24;12.60;48.20
5459;DHT22;2752;49.992;8.422;2023-08-08T04:44:51;12.60;48.00
5459;DHT22;2752;49.992;8.422;2023-08-08T04:47:17;12.60;48.30
5459;DHT22;2752;49.992;8.422;2023-08-08T04:49:44;13.00;48.80
5459;DHT22;2752;49.992;8.422;2023-08-08T04:52:12;12.70;48.40
5459;DHT22;2752;49.992;8.422;2023-08-08T04:54:39;12.70;47.90
5459;DHT22;2752;49.992;8.422;2023-08-08T04:57:06;12.80;47.30
5459;DHT22;2752;49.992;8.422;2023-08-08T04:59:32;12.80;46.00
5459;DHT22;2752;49.992;8.422;2023-08-08T05:01:59;12.80;45.30
5459;DHT22;2752;49.992;8.422;2023-08-08T05:04:26;12.90;45.40
5459;DHT22;2752;49.992;8.422;2023-08-08T05:06:52;12.90;45.00
5459;DHT22;2752;49.992;8.422;2023-08-08T05:09:20;12.90;43.80
5459;DHT22;2752;49.992;8.422;2023-08-08T05:11:51;13.00;42.00
5459;DHT22;2752;49.992;8.422;2023-08-08T05:14:18;13.10;40.50
5459;DHT22;2752;49.992;8.422;2023-08-08T05:16:45;13.10;37.30
5459;DHT22;2752;49.992;8.422;2023-08-08T05:19:11;13.20;35.70
5459;DHT22;2752;49.992;8.422;2023-08-08T05:21:38;13.20;33.90
5459;DHT22;2752;49.992;8.422;2023-08-08T05:24:05;13.30;32.80
5459;DHT22;2752;49.992;8.422;2023-08-08T05:26:33;13.40;31.20
5459;DHT22;2752;49.992;8.422;2023-08-08T05:28:59;13.50;27.20
5459;DHT22;2752;49.992;8.422;2023-08-08T05:31:26;13.60;22.80
5459;DHT22;2752;49.992;8.422;2023-08-08T05:33:53;13.60;21.40
5459;DHT22;2752;49.992;8.422;2023-08-08T05:36:19;13.70;20.20
5459;DHT22;2752;49.992;8.422;2023-08-08T05:38:46;13.80;17.40
5459;DHT22;2752;49.992;8.422;2023-08-08T05:41:12;13.80;16.00
5459;DHT22;2752;49.992;8.422;2023-08-08T05:43:40;13.90;15.30
5459;DHT22;2752;49.992;8.422;2023-08-08T05:46:08;14.00;13.90
5459;DHT22;2752;49.992;8.422;2023-08-08T05:48:34;14.20;11.50
5459;DHT22;2752;49.992;8.422;2023-08-08T05:51:01;14.20;9.50
5459;DHT22;2752;49.992;8.422;2023-08-08T05:53:30;14.30;8.40
5459;DHT22;2752;49.992;8.422;2023-08-08T05:55:57;14.40;5.80
5459;DHT22;2752;49.992;8.422;2023-08-08T05:58:23;14.50;5.40
5459;DHT22;2752;49.992;8.422;2023-08-08T06:00:52;14.60;2.40
5459;DHT22;2752;49.992;8.422;2023-08-08T06:03:19;14.80;1.00
5459;DHT22;2752;49.992;8.422;2023-08-08T06:05:45;14.90;1.00
5459;DHT22;2752;49.992;8.422;2023-08-08T06:08:12;15.10;1.00
5459;DHT22;2752;49.992;8.422;2023-08-08T06:10:41;15.20;1.00
5459;DHT22;2752;49.992;8.422;2023-08-08T06:13:08;15.20;1.00
5459;DHT22;2752;49.992;8.422;2023-08-08T06:15:35;15.20;1.00
5459;DHT22;2752;49.992;8.422;2023-08-08T06:18:03;15.30;1.00
5459;DHT22;2752;49.992;8.422;2023-08-08T06:20:29;15.40;1.00
5459;DHT22;2752;49.992;8.422;2023-08-08T06:22:56;15.50;1.00
5459;DHT22;2752;49.992;8.422;2023-08-08T06:25:23;15.50;1.00
5459;DHT22;2752;49.992;8.422;2023-08-08T06:27:50;15.70;1.00
5459;DHT22;2752;49.992;8.422;2023-08-08T06:30:16;15.80;1.00
5459;DHT22;2752;49.992;8.422;2023-08-08T06:32:43;15.80;1.00
5459;DHT22;2752;49.992;8.422;2023-08-08T06:35:11;15.90;1.00
5459;DHT22;2752;49.992;8.422;2023-08-08T06:37:38;16.00;1.00
5459;DHT22;2752;49.992;8.422;2023-08-08T06:40:05;16.20;1.00
5459;DHT22;2752;49.992;8.422;2023-08-08T06:42:33;16.30;1.00
5459;DHT22;2752;49.992;8.422;2023-08-08T06:45:00;16.40;1.00
5459;DHT22;2752;49.992;8.422;2023-08-08T06:47:27;16.40;1.00
5459;DHT22;2752;49.992;8.422;2023-08-08T06:49:53;16.50;1.00
5459;DHT22;2752;49.992;8.422;2023-08-08T06:52:22;16.60;1.00
5459;DHT22;2752;49.992;8.422;2023-08-08T06:54:49;16.80;1.00
5459;DHT22;2752;49.992;8.422;2023-08-08T06:57:15;16.80;1.00
5459;DHT22;2752;49.992;8.422;2023-08-08T06:59:42;17.00;1.00
5459;DHT22;2752;49.992;8.422;2023-08-08T07:02:09;17.10;1.00
5459;DHT22;2752;49.992;8.422;2023-08-08T07:04:37;17.10;1.00
5459;DHT22;2752;49.992;8.422;2023-08-08T07:07:03;17.20;1.00
5459;DHT22;2752;49.992;8.422;2023-08-08T07:09:31;17.20;1.00
5459;DHT22;2752;49.992;8.422;2023-08-08T07:11:59;17.30;1.00
5459;DHT22;2752;49.992;8.422;2023-08-08T07:14:25;17.40;1.00
5459;DHT22;2752;49.992;8.422;2023-08-08T07:16:52;17.50;1.00
5459;DHT22;2752;49.992;8.422;2023-08-08T07:19:19;17.50;1.00
5459;DHT22;2752;49.992;8.422;2023-08-08T07:21:46;17.60;1.00
5459;DHT22;2752;49.992;8.422;2023-08-08T07:24:13;17.80;1.00
5459;DHT22;2752;49.992;8.422;2023-08-08T07:26:41;17.80;1.00
5459;DHT22;2752;49.992;8.422;2023-08-08T07:29:07;17.80;1.00
5459;DHT22;2752;49.992;8.422;2023-08-08T07:31:34;17.90;1.00
5459;DHT22;2752;49.992;8.422;2023-08-08T07:34:01;18.00;1.00
5459;DHT22;2752;49.992;8.422;2023-08-08T07:36:27;17.90;1.00
5459;DHT22;2752;49.992;8.422;2023-08-08T07:38:54;18.00;1.00
5459;DHT22;2752;49.992;8.422;2023-08-08T07:41:25;18.10;1.00
5459;DHT22;2752;49.992;8.422;2023-08-08T07:43:53;18.10;1.00
5459;DHT22;2752;49.992;8.422;2023-08-08T07:46:19;18.20;1.00
5459;DHT22;2752;49.992;8.422;2023-08-08T07:48:46;18.30;1.00
5459;DHT22;2752;49.992;8.422;2023-08-08T07:51:13;18.50;1.00
5459;DHT22;2752;49.992;8.422;2023-08-08T07:53:39;18.40;1.00
5459;DHT22;2752;49.992;8.422;2023-08-08T07:56:06;18.40;1.00
5459;DHT22;2752;49.992;8.422;2023-08-08T07:58:33;18.50;1.00
5459;DHT22;2752;49.992;8.422;2023-08-08T08:01:01;18.60;1.00
5459;DHT22;2752;49.992;8.422;2023-08-08T08:03:28;18.70;1.00
5459;DHT22;2752;49.992;8.422;2023-08-08T08:05:54;18.80;1.00
5459;DHT22;2752;49.992;8.422;2023-08-08T08:08:21;18.90;1.00
5459;DHT22;2752;49.992;8.422;2023-08-08T08:10:49;19.00;1.00
5459;DHT22;2752;49.992;8.422;2023-08-08T08:13:16;19.00;1.00
5459;DHT22;2752;49.992;8.422;2023-08-08T08:15:43;19.10;1.00
5459;DHT22;2752;49.992;8.422;2023-08-08T08:18:11;19.20;1.00
5459;DHT22;2752;49.992;8.422;2023-08-08T08:20:39;19.20;1.00
5459;DHT22;2752;49.992;8.422;2023-08-08T08:23:06;19.40;1.00
5459;DHT22;2752;49.992;8.422;2023-08-08T08:25:32;19.40;1.00
5459;DHT22;2752;49.992;8.422;2023-08-08T08:27:59;19.40;1.00
5459;DHT22;2752;49.992;8.422;2023-08-08T08:30:26;19.30;1.00
5459;DHT22;2752;49.992;8.422;2023-08-08T08:32:52;19.30;1.00
5459;DHT22;2752;49.992;8.422;2023-08-08T08:35:20;19.50;1.00
5459;DHT22;2752;49.992;8.422;2023-08-08T08:37:47;19.50;1.00
5459;DHT22;2752;49.992;8.422;2023-08-08T08:40:14;19.60;1.00
5459;DHT22;2752;49.992;8.422;2023-08-08T08:42:42;19.60;1.00
5459;DHT22;2752;49.992;8.422;2023-08-08T08:45:09;19.60;1.00
5459;DHT22;2752;49.992;8.422;2023-08-08T08:47:40;19.70;1.00
5459;DHT22;2752;49.992;8.422;2023-08-08T08:50:08;19.90;1.00
5459;DHT22;2752;49.992;8.422;2023-08-08T08:52:38;19.90;1.00
5459;DHT22;2752;49.992;8.422;2023-08-08T08:55:06;19.90;1.00
5459;DHT22;2752;49.992;8.422;2023-08-08T08:57:33;20.00;1.00
5459;DHT22;2752;49.992;8.422;2023-08-08T09:00:00;19.90;1.00
5459;DHT22;2752;49.992;8.422;2023-08-08T09:02:26;20.00;1.00
5459;DHT22;2752;49.992;8.422;2023-08-08T09:04:53;20.00;1.00
5459;DHT22;2752;49.992;8.422;2023-08-08T09:07:23;20.00;1.00
5459;DHT22;2752;49.992;8.422;2023-08-08T09:09:52;20.10;1.00
5459;DHT22;2752;49.992;8.422;2023-08-08T09:12:19;20.10;1.00
5459;DHT22;2752;49.992;8.422;2023-08-08T09:14:46;20.30;1.00
5459;DHT22;2752;49.992;8.422;2023-08-08T09:17:14;20.30;1.00
5459;DHT22;2752;49.992;8.422;2023-08-08T09:19:42;20.20;1.00
5459;DHT22;2752;49.992;8.422;2023-08-08T09:22:10;20.30;1.00
5459;DHT22;2752;49.992;8.422;2023-08-08T09:24:39;20.40;1.00
5459;DHT22;2752;49.992;8.422;2023-08-08T09:27:07;20.40;1.00
5459;DHT22;2752;49.992;8.422;2023-08-08T09:29:35;20.50;1.00
5459;DHT22;2752;49.992;8.422;2023-08-08T09:32:03;20.50;1.00
5459;DHT22;2752;49.992;8.422;2023-08-08T09:34:30;20.60;1.00
5459;DHT22;2752;49.992;8.422;2023-08-08T09:36:57;20.70;1.00
5459;DHT22;2752;49.992;8.422;2023-08-08T09:39:25;20.70;1.00
5459;DHT22;2752;49.992;8.422;2023-08-08T09:41:52;20.90;1.00
5459;DHT22;2752;49.992;8.422;2023-08-08T09:44:23;20.90;1.00
5459;DHT22;2752;49.992;8.422;2023-08-08T09:46:50;21.00;1.00
5459;DHT22;2752;49.992;8.422;2023-08-08T09:49:17;21.00;1.00
5459;DHT22;2752;49.992;8.422;2023-08-08T09:51:44;20.80;1.00
5459;DHT22;2752;49.992;8.422;2023-08-08T09:54:12;20.90;1.00
5459;DHT22;2752;49.992;8.422;2023-08-08T09:56:40;20.90;1.00
5459;DHT22;2752;49.992;8.422;2023-08-08T09:59:07;21.00;1.00
5459;DHT22;2752;49.992;8.422;2023-08-08T10:01:39;21.00;1.00
5459;DHT22;2752;49.992;8.422;2023-08-08T10:04:06;21.10;1.00
5459;DHT22;2752;49.992;8.422;2023-08-08T10:06:34;21.20;1.00
5459;DHT22;2752;49.992;8.422;2023-08-08T10:09:02;21.10;1.00
5459;DHT22;2752;49.992;8.422;2023-08-08T10:11:30;21.20;1.00
5459;DHT22;2752;49.992;8.422;2023-08-08T10:13:57;21.40;1.00
5459;DHT22;2752;49.992;8.422;2023-08-08T10:16:25;21.60;1.00
5459;DHT22;2752;49.992;8.422;2023-08-08T10:18:57;21.50;1.00
5459;DHT22;2752;49.992;8.422;2023-08-08T10:21:24;21.40;1.00
5459;DHT22;2752;49.992;8.422;2023-08-08T10:24:02;21.60;1.00
5459;DHT22;2752;49.992;8.422;2023-08-08T10:26:28;21.70;1.00
5459;DHT22;2752;49.992;8.422;2023-08-08T10:28:56;21.70;1.00
5459;DHT22;2752;49.992;8.422;2023-08-08T10:31:23;21.70;1.00
5459;DHT22;2752;49.992;8.422;2023-08-08T10:34:00;21.60;1.00
5459;DHT22;2752;49.992;8.422;2023-08-08T10:36:43;21.60;1.00
5459;DHT22;2752;49.992;8.422;2023-08-08T10:39:14;21.60;1.00
5459;DHT22;2752;49.992;8.422;2023-08-08T10:41:44;21.60;1.00
5459;DHT22;2752;49.992;8.422;2023-08-08T10:44:11;21.70;1.00
5459;DHT22;2752;49.992;8.422;2023-08-08T10:46:41;21.60;1.00
5459;DHT22;2752;49.992;8.422;2023-08-08T10:49:08;21.70;1.00
5459;DHT22;2752;49.992;8.422;2023-08-08T10:51:39;21.80;1.00
5459;DHT22;2752;49.992;8.422;2023-08-08T10:54:12;21.80;1.00
5459;DHT22;2752;49.992;8.422;2023-08-08T10:56:39;21.90;1.00
5459;DHT22;2752;49.992;8.422;2023-08-08T10:59:14;21.90;1.00
5459;DHT22;2752;49.992;8.422;2023-08-08T11:01:42;21.90;1.00
5459;DHT22;2752;49.992;8.422;2023-08-08T11:04:11;22.00;1.00
5459;DHT22;2752;49.992;8.422;2023-08-08T11:06:39;22.10;1.00
5459;DHT22;2752;49.992;8.422;2023-08-08T11:09:06;21.80;1.00
5459;DHT22;2752;49.992;8.422;2023-08-08T11:11:36;21.80;1.00
5459;DHT22;2752;49.992;8.422;2023-08-08T11:14:10;21.80;1.00
5459;DHT22;2752;49.992;8.422;2023-08-08T11:16:36;21.90;1.00
5459;DHT22;2752;49.992;8.422;2023-08-08T11:19:04;22.00;1.00
5459;DHT22;2752;49.992;8.422;2023-08-08T11:21:33;21.90;1.00
5459;DHT22;2752;49.992;8.422;2023-08-08T11:24:02;21.70;1.00
5459;DHT22;2752;49.992;8.422;2023-08-08T11:26:29;21.70;1.00
5459;DHT22;2752;49.992;8.422;2023-08-08T11:28:58;21.80;1.00
5459;DHT22;2752;49.992;8.422;2023-08-08T11:31:24;21.70;1.00
5459;DHT22;2752;49.992;8.422;2023-08-08T11:33:52;21.60;1.00
5459;DHT22;2752;49.992;8.422;2023-08-08T11:36:19;21.70;1.00
5459;DHT22;2752;49.992;8.422;2023-08-08T11:38:46;21.80;1.00
5459;DHT22;2752;49.992;8.422;2023-08-08T11:41:15;21.60;1.00
5459;DHT22;2752;49.992;8.422;2023-08-08T11:43:44;21.60;1.00
5459;DHT22;2752;49.992;8.422;2023-08-08T11:46:12;21.80;1.00
5459;DHT22;2752;49.992;8.422;2023-08-08T11:48:39;21.90;1.00
5459;DHT22;2752;49.992;8.422;2023-08-08T11:51:06;22.00;1.00
5459;DHT22;2752;49.992;8.422;2023-08-08T11:53:33;22.10;1.00
5459;DHT22;2752;49.992;8.422;2023-08-08T11:56:02;21.90;1.00
5459;DHT22;2752;49.992;8.422;2023-08-08T11:58:30;21.90;1.00
5459;DHT22;2752;49.992;8.422;2023-08-08T12:00:57;21.70;1.00
5459;DHT22;2752;49.992;8.422;2023-08-08T12:03:25;21.80;1.00
5459;DHT22;2752;49.992;8.422;2023-08-08T12:05:52;22.10;1.00
5459;DHT22;2752;49.992;8.422;2023-08-08T12:08:19;22.20;1.00
5459;DHT22;2752;49.992;8.422;2023-08-08T12:10:48;22.30;1.00
5459;DHT22;2752;49.992;8.422;2023-08-08T12:13:20;22.20;1.00
5459;DHT22;2752;49.992;8.422;2023-08-08T12:15:48;22.20;1.00
5459;DHT22;2752;49.992;8.422;2023-08-08T12:18:16;22.30;1.00
5459;DHT22;2752;49.992;8.422;2023-08-08T12:20:43;22.50;1.00
5459;DHT22;2752;49.992;8.422;2023-08-08T12:23:10;22.40;1.00
5459;DHT22;2752;49.992;8.422;2023-08-08T12:25:36;22.60;1.00
5459;DHT22;2752;49.992;8.422;2023-08-08T12:28:04;22.70;1.00
5459;DHT22;2752;49.992;8.422;2023-08-08T12:30:31;22.80;1.00
5459;DHT22;2752;49.992;8.422;2023-08-08T12:33:00;22.80;1.00
5459;DHT22;2752;49.992;8.422;2023-08-08T12:35:27;22.70;1.00
5459;DHT22;2752;49.992;8.422;2023-08-08T12:37:53;22.70;1.00
5459;DHT22;2752;49.992;8.422;2023-08-08T12:40:20;22.90;1.00
5459;DHT22;2752;49.992;8.422;2023-08-08T12:42:47;22.90;1.00
5459;DHT22;2752;49.992;8.422;2023-08-08T12:45:15;22.60;1.00
5459;DHT22;2752;49.992;8.422;2023-08-08T12:47:43;22.70;1.00
5459;DHT22;2752;49.992;8.422;2023-08-08T12:50:11;22.80;1.00
5459;DHT22;2752;49.992;8.422;2023-08-08T12:52:38;22.90;1.00
5459;DHT22;2752;49.992;8.422;2023-08-08T12:55:06;22.80;1.00
5459;DHT22;2752;49.992;8.422;2023-08-08T12:57:33;22.70;1.00
5459;DHT22;2752;49.992;8.422;2023-08-08T13:00:00;22.50;1.00
5459;DHT22;2752;49.992;8.422;2023-08-08T13:02:26;22.50;1.00
5459;DHT22;2752;49.992;8.422;2023-08-08T13:04:53;22.50;1.00
5459;DHT22;2752;49.992;8.422;2023-08-08T13:07:21;22.50;1.00
5459;DHT22;2752;49.992;8.422;2023-08-08T13:09:48;22.50;1.00
5459;DHT22;2752;49.992;8.422;2023-08-08T13:12:15;22.50;1.00
5459;DHT22;2752;49.992;8.422;2023-08-08T13:14:41;22.40;1.00
5459;DHT22;2752;49.992;8.422;2023-08-08T13:17:08;22.80;1.00
5459;DHT22;2752;49.992;8.422;2023-08-08T13:19:35;23.10;1.00
5459;DHT22;2752;49.992;8.422;2023-08-08T13:22:02;23.30;1.00
5459;DHT22;2752;49.992;8.422;2023-08-08T13:24:30;23.30;1.00
5459;DHT22;2752;49.992;8.422;2023-08-08T13:26:56;23.00;1.00
5459;DHT22;2752;49.992;8.422;2023-08-08T13:29:23;22.70;1.00
5459;DHT22;2752;49.992;8.422;2023-08-08T13:31:50;22.70;1.00
5459;DHT22;2752;49.992;8.422;2023-08-08T13:34:17;22.90;1.00
5459;DHT22;2752;49.992;8.422;2023-08-08T13:36:43;23.20;1.00
5459;DHT22;2752;49.992;8.422;2023-08-08T13:39:10;23.40;1.00
5459;DHT22;2752;49.992;8.422;2023-08-08T13:41:38;23.40;1.00
5459;DHT22;2752;49.992;8.422;2023-08-08T13:44:05;23.30;1.00
5459;DHT22;2752;49.992;8.422;2023-08-08T13:46:32;23.10;1.00
5459;DHT22;2752;49.992;8.422;2023-08-08T13:48:59;23.00;1.00
5459;DHT22;2752;49.992;8.422;2023-08-08T13:51:25;22.80;1.00
5459;DHT22;2752;49.992;8.422;2023-08-08T13:53:52;22.90;1.00
5459;DHT22;2752;49.992;8.422;2023-08-08T13:56:19;22.80;1.00
5459;DHT22;2752;49.992;8.422;2023-08-08T13:58:47;22.90;1.00
5459;DHT22;2752;49.992;8.422;2023-08-08T14:01:14;22.80;1.00
5459;DHT22;2752;49.992;8.422;2023-08-08T14:03:40;22.90;1.00
5459;DHT22;2752;49.992;8.422;2023-08-08T14:06:07;23.10;1.00
5459;DHT22;2752;49.992;8.422;2023-08-08T14:08:34;23.20;1.00
5459;DHT22;2752;49.992;8.422;2023-08-08T14:11:01;23.10;1.00
5459;DHT22;2752;49.992;8.422;2023-08-08T14:13:27;22.90;1.00
5459;DHT22;2752;49.992;8.422;2023-08-08T14:15:55;22.60;1.00
5459;DHT22;2752;49.992;8.422;2023-08-08T14:18:22;22.50;1.00
5459;DHT22;2752;49.992;8.422;2023-08-08T14:20:49;22.40;1.00
5459;DHT22;2752;49.992;8.422;2023-08-08T14:23:16;22.30;1.00
5459;DHT22;2752;49.992;8.422;2023-08-08T14:25:42;22.20;1.00
5459;DHT22;2752;49.992;8.422;2023-08-08T14:28:09;22.10;1.00
5459;DHT22;2752;49.992;8.422;2023-08-08T14:30:35;22.00;1.00
5459;DHT22;2752;49.992;8.422;2023-08-08T14:33:04;22.00;1.00
5459;DHT22;2752;49.992;8.422;2023-08-08T14:35:30;21.90;1.00
5459;DHT22;2752;49.992;8.422;2023-08-08T14:37:57;21.80;1.00
5459;DHT22;2752;49.992;8.422;2023-08-08T14:40:24;21.80;1.00
5459;DHT22;2752;49.992;8.422;2023-08-08T14:42:50;21.80;1.00
5459;DHT22;2752;49.992;8.422;2023-08-08T14:45:17;21.70;1.00
5459;DHT22;2752;49.992;8.422;2023-08-08T14:47:44;21.80;1.00
5459;DHT22;2752;49.992;8.422;2023-08-08T14:50:12;21.70;1.00
5459;DHT22;2752;49.992;8.422;2023-08-08T14:52:39;21.50;1.00
5459;DHT22;2752;49.992;8.422;2023-08-08T14:55:07;21.40;1.00
5459;DHT22;2752;49.992;8.422;2023-08-08T14:57:34;21.30;1.00
5459;DHT22;2752;49.992;8.422;2023-08-08T15:00:01;21.20;1.00
5459;DHT22;2752;49.992;8.422;2023-08-08T15:02:28;21.30;1.00
5459;DHT22;2752;49.992;8.422;2023-08-08T15:04:55;21.40;1.00
5459;DHT22;2752;49.992;8.422;2023-08-08T15:07:23;21.30;1.00
5459;DHT22;2752;49.992;8.422;2023-08-08T15:09:50;21.40;1.00
5459;DHT22;2752;49.992;8.422;2023-08-08T15:12:18;21.40;1.00
5459;DHT22;2752;49.992;8.422;2023-08-08T15:14:45;21.20;1.00
5459;DHT22;2752;49.992;8.422;2023-08-08T15:17:14;21.10;1.00
5459;DHT22;2752;49.992;8.422;2023-08-08T15:19:40;21.10;1.00
5459;DHT22;2752;49.992;8.422;2023-08-08T15:22:07;21.00;1.00
5459;DHT22;2752;49.992;8.422;2023-08-08T15:24:35;20.90;1.00
5459;DHT22;2752;49.992;8.422;2023-08-08T15:27:02;21.00;1.00
5459;DHT22;2752;49.992;8.422;2023-08-08T15:29:29;21.10;1.00
5459;DHT22;2752;49.992;8.422;2023-08-08T15:31:56;21.30;1.00
5459;DHT22;2752;49.992;8.422;2023-08-08T15:34:23;21.30;1.00
5459;DHT22;2752;49.992;8.422;2023-08-08T15:36:49;21.40;1.00
5459;DHT22;2752;49.992;8.422;2023-08-08T15:39:16;21.40;1.00
5459;DHT22;2752;49.992;8.422;2023-08-08T15:41:45;21.40;1.00
5459;DHT22;2752;49.992;8.422;2023-08-08T15:44:12;21.30;1.00
5459;DHT22;2752;49.992;8.422;2023-08-08T15:46:38;21.30;1.00
5459;DHT22;2752;49.992;8.422;2023-08-08T15:49:05;21.40;1.00
5459;DHT22;2752;49.992;8.422;2023-08-08T15:51:32;21.50;1.00
5459;DHT22;2752;49.992;8.422;2023-08-08T15:53:59;21.60;1.00
5459;DHT22;2752;49.992;8.422;2023-08-08T15:56:26;21.50;1.00
5459;DHT22;2752;49.992;8.422;2023-08-08T15:58:54;21.40;1.00
5459;DHT22;2752;49.992;8.422;2023-08-08T16:01:20;21.40;1.00
5459;DHT22;2752;49.992;8.422;2023-08-08T16:03:47;21.70;1.00
5459;DHT22;2752;49.992;8.422;2023-08-08T16:06:14;21.90;1.00
5459;DHT22;2752;49.992;8.422;2023-08-08T16:08:40;22.00;1.00
5459;DHT22;2752;49.992;8.422;2023-08-08T16:11:07;22.00;1.00
5459;DHT22;2752;49.992;8.422;2023-08-08T16:13:34;22.10;1.00
5459;DHT22;2752;49.992;8.422;2023-08-08T16:16:02;22.00;1.00